createdAt,value
2018-06-19T00:01:17.978Z,99.90
2018-06-19T00:03:46.653Z,99.90
2018-06-19T00:06:15.531Z,99.90
2018-06-19T00:08:44.303Z,99.90
2018-06-19T00:11:13.286Z,99.90
2018-06-19T00:13:42.298Z,99.90
2018-06-19T00:16:11.243Z,99.90
2018-06-19T00:18:42.331Z,99.90
2018-06-19T00:21:13.559Z,99.90
2018-06-19T00:23:42.238Z,99.90
2018-06-19T00:26:11.182Z,99.90
2018-06-19T00:28:42.707Z,99.90
2018-06-19T00:31:11.461Z,99.90
2018-06-19T00:33:40.247Z,99.90
2018-06-19T00:36:09.026Z,99.90
2018-06-19T00:38:37.811Z,99.90
2018-06-19T00:41:06.542Z,99.90
2018-06-19T00:43:35.412Z,99.90
2018-06-19T00:46:04.509Z,99.90
2018-06-19T00:48:33.341Z,99.90
2018-06-19T00:51:02.159Z,99.90
2018-06-19T00:53:31.129Z,99.90
2018-06-19T00:56:11.346Z,99.90
2018-06-19T00:58:40.083Z,99.90
2018-06-19T01:01:09.040Z,99.90
2018-06-19T01:03:37.907Z,99.90
2018-06-19T01:06:06.802Z,99.90
2018-06-19T01:08:35.724Z,99.90
2018-06-19T01:11:04.542Z,99.90
2018-06-19T01:13:33.317Z,99.90
2018-06-19T01:16:02.021Z,99.90
2018-06-19T01:18:31.142Z,99.90
2018-06-19T01:20:59.941Z,99.90
2018-06-19T01:23:28.770Z,99.90
2018-06-19T01:25:57.485Z,99.90
2018-06-19T01:28:26.279Z,99.90
2018-06-19T01:30:55.194Z,99.90
2018-06-19T01:33:24.088Z,99.90
2018-06-19T01:35:52.886Z,99.90
2018-06-19T01:38:21.642Z,99.90
2018-06-19T01:45:47.129Z,99.90
2018-06-19T01:48:15.874Z,99.90
2018-06-19T01:50:44.638Z,99.90
2018-06-19T01:53:13.290Z,99.90
2018-06-19T01:55:42.102Z,99.90
2018-06-19T01:58:10.929Z,99.90
2018-06-19T02:03:42.207Z,99.90
2018-06-19T02:06:10.935Z,99.90
2018-06-19T02:08:39.701Z,99.90
2018-06-19T02:11:08.394Z,99.90
2018-06-19T02:13:37.159Z,99.90
2018-06-19T02:16:05.961Z,99.90
2018-06-19T02:18:34.757Z,99.90
2018-06-19T02:21:03.703Z,99.90
2018-06-19T02:23:32.439Z,99.90
2018-06-19T02:26:01.303Z,99.90
2018-06-19T02:28:30.061Z,99.90
2018-06-19T02:30:58.918Z,99.90
2018-06-19T02:33:27.686Z,99.90
2018-06-19T02:35:56.398Z,99.90
2018-06-19T02:38:25.274Z,99.90
2018-06-19T02:43:22.401Z,99.90
2018-06-19T02:45:51.164Z,99.90
2018-06-19T02:48:20.078Z,99.90
2018-06-19T02:50:48.869Z,99.90
2018-06-19T02:53:17.648Z,99.90
2018-06-19T02:55:46.393Z,99.90
2018-06-19T02:58:15.138Z,99.90
2018-06-19T03:00:43.846Z,99.90
2018-06-19T03:03:12.658Z,99.90
2018-06-19T03:05:41.431Z,99.90
2018-06-19T03:08:10.266Z,99.90
2018-06-19T03:10:39.029Z,99.90
2018-06-19T03:13:07.794Z,99.90
2018-06-19T03:15:36.566Z,99.90
2018-06-19T03:18:05.308Z,99.90
2018-06-19T03:20:35.416Z,99.90
2018-06-19T03:23:04.246Z,99.90
2018-06-19T03:25:33.103Z,99.90
2018-06-19T03:28:01.939Z,99.90
2018-06-19T03:30:30.681Z,99.90
2018-06-19T03:32:59.671Z,99.90
2018-06-19T03:35:28.670Z,99.90
2018-06-19T03:37:57.546Z,99.90
2018-06-19T03:40:26.306Z,99.90
2018-06-19T03:42:55.166Z,99.90
2018-06-19T03:45:23.973Z,99.90
2018-06-19T03:47:52.829Z,99.90
2018-06-19T03:50:21.801Z,99.90
2018-06-19T03:52:50.773Z,99.90
2018-06-19T03:55:19.562Z,99.90
2018-06-19T03:57:48.430Z,99.90
2018-06-19T04:00:17.564Z,99.90
2018-06-19T04:02:46.556Z,99.90
2018-06-19T04:05:15.324Z,99.90
2018-06-19T04:07:44.087Z,99.90
2018-06-19T04:10:13.347Z,99.90
2018-06-19T04:12:42.275Z,99.90
2018-06-19T04:15:11.158Z,99.90
2018-06-19T04:17:40.101Z,99.90
2018-06-19T04:20:09.331Z,99.90
2018-06-19T04:22:38.098Z,99.90
2018-06-19T04:25:07.155Z,99.90
2018-06-19T04:27:35.874Z,99.90
2018-06-19T04:30:05.251Z,99.90
2018-06-19T04:32:34.037Z,99.90
2018-06-19T04:35:02.873Z,99.90
2018-06-19T04:37:31.662Z,99.90
2018-06-19T04:40:00.395Z,99.90
2018-06-19T04:42:29.307Z,99.90
2018-06-19T04:44:58.418Z,99.90
2018-06-19T04:47:27.785Z,99.90
2018-06-19T04:49:56.786Z,99.90
2018-06-19T04:52:25.904Z,99.90
2018-06-19T04:54:54.727Z,99.90
2018-06-19T04:57:23.514Z,99.90
2018-06-19T04:59:52.574Z,99.90
2018-06-19T05:02:21.478Z,99.90
2018-06-19T05:04:50.342Z,99.90
2018-06-19T05:07:19.065Z,99.90
2018-06-19T05:09:47.944Z,99.90
2018-06-19T05:12:16.801Z,99.90
2018-06-19T05:14:45.556Z,99.90
2018-06-19T05:17:14.352Z,99.90
2018-06-19T05:22:11.498Z,99.90
2018-06-19T05:24:40.306Z,99.90
2018-06-19T05:27:09.098Z,99.90
2018-06-19T05:32:06.544Z,99.90
2018-06-19T05:34:35.300Z,99.90
2018-06-19T05:37:04.055Z,99.90
2018-06-19T05:39:32.976Z,99.90
2018-06-19T05:42:01.898Z,99.90
2018-06-19T05:44:30.653Z,99.90
2018-06-19T05:46:59.442Z,99.90
2018-06-19T05:49:28.214Z,99.90
2018-06-19T05:51:56.954Z,99.90
2018-06-19T05:54:25.709Z,99.90
2018-06-19T05:56:54.471Z,99.90
2018-06-19T05:59:23.221Z,99.90
2018-06-19T06:04:20.387Z,99.90
2018-06-19T06:06:49.103Z,99.90
2018-06-19T06:09:17.851Z,99.90
2018-06-19T06:11:46.551Z,99.90
2018-06-19T06:14:15.265Z,99.90
2018-06-19T06:16:44.042Z,99.90
2018-06-19T06:19:12.750Z,99.90
2018-06-19T06:21:41.464Z,99.90
2018-06-19T06:24:10.341Z,99.90
2018-06-19T06:26:39.102Z,99.90
2018-06-19T06:29:08.472Z,99.90
2018-06-19T06:31:37.213Z,99.90
2018-06-19T06:34:05.973Z,99.90
2018-06-19T06:36:34.719Z,99.90
2018-06-19T06:39:03.794Z,99.90
2018-06-19T06:41:32.558Z,99.90
2018-06-19T06:44:01.318Z,99.90
2018-06-19T06:46:30.094Z,99.90
2018-06-19T06:51:27.138Z,99.90
2018-06-19T06:53:55.916Z,99.90
2018-06-19T06:56:24.610Z,99.90
2018-06-19T06:58:53.550Z,99.90
2018-06-19T07:01:22.294Z,99.90
2018-06-19T07:03:51.018Z,99.90
2018-06-19T07:06:19.798Z,99.90
2018-06-19T07:08:48.603Z,99.90
2018-06-19T07:11:17.349Z,99.90
2018-06-19T07:13:46.443Z,99.90
2018-06-19T07:16:15.250Z,99.90
2018-06-19T07:18:44.094Z,99.90
2018-06-19T07:21:12.882Z,99.90
2018-06-19T07:23:41.970Z,99.90
2018-06-19T07:26:10.693Z,99.90
2018-06-19T07:28:39.451Z,99.90
2018-06-19T07:31:08.251Z,99.90
2018-06-19T07:33:36.958Z,99.90
2018-06-19T07:36:06.555Z,99.90
2018-06-19T07:38:35.361Z,99.90
2018-06-19T07:43:42.512Z,99.90
2018-06-19T07:46:12.287Z,99.90
2018-06-19T07:48:41.082Z,99.90
2018-06-19T07:51:10.152Z,99.90
2018-06-19T07:53:40.463Z,99.90
2018-06-19T07:56:09.396Z,99.90
2018-06-19T07:58:39.603Z,99.90
2018-06-19T08:01:08.359Z,99.90
2018-06-19T08:03:39.719Z,99.90
2018-06-19T08:08:38.409Z,99.90
2018-06-19T08:11:08.705Z,99.90
2018-06-19T08:13:41.250Z,99.90
2018-06-19T08:16:10.302Z,99.90
2018-06-19T08:18:46.894Z,99.90
2018-06-19T08:21:16.510Z,99.90
2018-06-19T08:23:45.339Z,99.90
2018-06-19T08:26:16.958Z,99.90
2018-06-19T08:28:45.669Z,99.90
2018-06-19T08:31:14.418Z,99.90
2018-06-19T08:33:43.102Z,99.90
2018-06-19T08:36:11.801Z,99.90
2018-06-19T08:38:40.529Z,99.90
2018-06-19T08:41:09.304Z,99.90
2018-06-19T08:43:38.073Z,99.90
2018-06-19T08:46:06.835Z,99.90
2018-06-19T08:48:35.551Z,99.90
2018-06-19T08:51:04.290Z,99.90
2018-06-19T08:53:33.046Z,99.90
2018-06-19T08:56:02.171Z,99.90
2018-06-19T08:58:30.950Z,99.90
2018-06-19T09:01:01.581Z,99.90
2018-06-19T09:03:33.994Z,99.90
2018-06-19T09:06:03.033Z,99.90
2018-06-19T09:08:31.994Z,99.90
2018-06-19T09:11:01.013Z,99.90
2018-06-19T09:13:29.908Z,99.90
2018-06-19T09:15:58.771Z,99.90
2018-06-19T09:18:27.802Z,99.90
2018-06-19T09:20:56.592Z,99.90
2018-06-19T09:23:25.483Z,99.90
2018-06-19T09:25:54.453Z,99.90
2018-06-19T09:28:23.294Z,99.90
2018-06-19T09:30:52.254Z,99.90
2018-06-19T09:33:21.828Z,99.90
2018-06-19T09:35:51.143Z,99.90
2018-06-19T09:38:20.408Z,99.90
2018-06-19T09:40:49.556Z,99.90
2018-06-19T09:43:18.618Z,99.90
2018-06-19T09:45:47.438Z,99.90
2018-06-19T09:48:16.206Z,99.90
2018-06-19T09:50:44.968Z,99.90
2018-06-19T09:53:13.802Z,99.90
2018-06-19T09:55:42.742Z,99.90
2018-06-19T09:58:11.493Z,99.90
2018-06-19T10:00:40.852Z,99.90
2018-06-19T10:03:09.719Z,99.90
2018-06-19T10:05:38.524Z,99.90
2018-06-19T10:08:07.347Z,99.90
2018-06-19T10:10:36.194Z,99.90
2018-06-19T10:13:05.132Z,99.90
2018-06-19T10:15:33.914Z,99.90
2018-06-19T10:18:02.802Z,99.90
2018-06-19T10:20:31.579Z,99.90
2018-06-19T10:23:00.418Z,99.90
2018-06-19T10:25:29.230Z,99.90
2018-06-19T10:27:57.990Z,99.90
2018-06-19T10:30:26.798Z,99.90
2018-06-19T10:32:55.595Z,99.90
2018-06-19T10:35:24.484Z,99.90
2018-06-19T10:37:53.294Z,99.90
2018-06-19T10:40:22.181Z,99.90
2018-06-19T10:42:50.945Z,99.90
2018-06-19T10:45:19.721Z,99.90
2018-06-19T10:47:48.546Z,99.90
2018-06-19T10:50:17.315Z,99.90
2018-06-19T10:52:46.135Z,99.90
2018-06-19T10:55:14.889Z,99.90
2018-06-19T10:57:43.696Z,99.90
2018-06-19T11:00:12.522Z,99.90
2018-06-19T11:02:41.294Z,99.90
2018-06-19T11:05:10.046Z,99.90
2018-06-19T11:07:38.751Z,99.90
2018-06-19T11:10:07.614Z,99.90
2018-06-19T11:12:36.407Z,99.90
2018-06-19T11:15:05.242Z,99.90
2018-06-19T11:17:35.812Z,99.90
2018-06-19T11:20:04.670Z,99.90
2018-06-19T11:22:35.478Z,99.90
2018-06-19T11:25:04.266Z,99.90
2018-06-19T11:27:32.974Z,99.90
2018-06-19T11:30:01.839Z,99.90
2018-06-19T11:32:30.593Z,99.90
2018-06-19T11:34:59.346Z,99.90
2018-06-19T11:37:28.099Z,99.90
2018-06-19T11:39:56.848Z,99.90
2018-06-19T11:42:25.767Z,99.90
2018-06-19T11:44:54.565Z,99.90
2018-06-19T11:47:23.298Z,99.90
2018-06-19T11:49:52.030Z,99.90
2018-06-19T11:52:20.758Z,99.90
2018-06-19T11:54:49.468Z,99.90
2018-06-19T11:57:18.182Z,99.90
2018-06-19T11:59:46.897Z,99.90
2018-06-19T12:02:15.623Z,99.90
2018-06-19T12:04:44.280Z,99.90
2018-06-19T12:07:12.971Z,99.90
2018-06-19T12:09:41.661Z,99.90
2018-06-19T12:12:10.358Z,99.90
2018-06-19T12:14:39.062Z,99.90
2018-06-19T12:17:07.749Z,99.90
2018-06-19T12:19:36.426Z,99.90
2018-06-19T12:22:05.158Z,99.90
2018-06-19T12:24:33.842Z,99.90
2018-06-19T12:27:02.538Z,99.90
2018-06-19T12:29:31.307Z,99.90
2018-06-19T12:32:00.013Z,99.90
2018-06-19T12:34:28.769Z,99.90
2018-06-19T12:36:57.460Z,99.90
2018-06-19T12:39:26.209Z,99.90
2018-06-19T12:41:54.882Z,99.90
2018-06-19T12:44:23.597Z,99.90
2018-06-19T12:46:52.440Z,99.90
2018-06-19T12:52:32.436Z,99.90
2018-06-19T12:55:18.453Z,99.90
2018-06-19T12:57:47.709Z,99.90
2018-06-19T13:00:22.484Z,99.90
2018-06-19T13:03:05.914Z,99.90
2018-06-19T13:05:51.499Z,99.90
2018-06-19T13:08:22.471Z,99.90
2018-06-19T13:13:21.373Z,99.90
2018-06-19T13:22:06.120Z,99.90
2018-06-19T13:27:06.610Z,99.90
2018-06-19T13:29:51.833Z,99.90
2018-06-19T13:32:55.815Z,99.90
2018-06-19T13:35:42.353Z,99.90
2018-06-19T13:38:52.422Z,99.90
2018-06-19T13:48:30.339Z,99.90
2018-06-19T13:50:59.413Z,99.90
2018-06-19T13:53:28.214Z,99.90
2018-06-19T13:56:09.276Z,99.90
2018-06-19T13:58:38.670Z,99.90
2018-06-19T14:01:29.405Z,99.90
2018-06-19T14:03:58.720Z,99.90
2018-06-19T14:06:42.994Z,99.90
2018-06-19T14:11:31.746Z,99.90
2018-06-19T14:14:16.177Z,99.90
2018-06-19T14:16:44.882Z,99.90
2018-06-19T14:19:24.703Z,99.90
2018-06-19T14:23:25.033Z,99.90
2018-06-19T14:27:40.938Z,90.40
2018-06-19T14:30:11.788Z,88.70
2018-06-19T14:32:40.519Z,81.00
2018-06-19T14:35:09.451Z,69.40
2018-06-19T14:37:38.097Z,63.80
2018-06-19T14:40:06.901Z,60.30
2018-06-19T14:42:36.003Z,59.70
2018-06-19T14:49:32.157Z,64.80
2018-06-19T14:52:02.985Z,67.30
2018-06-19T14:54:31.694Z,74.30
2018-06-19T14:57:00.378Z,69.60
2018-06-19T14:59:29.052Z,73.70
2018-06-19T15:01:57.731Z,77.50
2018-06-19T15:04:26.414Z,77.70
2018-06-19T15:06:55.114Z,80.20
2018-06-19T15:09:23.795Z,79.30
2018-06-19T15:11:52.506Z,80.30
2018-06-19T15:14:21.170Z,79.70
2018-06-19T15:16:49.875Z,86.10
2018-06-19T15:19:18.546Z,82.90
2018-06-19T15:21:47.469Z,75.60
2018-06-19T15:24:16.250Z,75.50
2018-06-19T15:26:45.026Z,76.20
2018-06-19T15:29:13.826Z,73.00
2018-06-19T15:31:42.621Z,73.90
2018-06-19T15:34:11.467Z,75.20
2018-06-19T15:36:40.789Z,75.60
2018-06-19T15:39:12.886Z,78.20
2018-06-19T15:41:41.741Z,79.50
2018-06-19T15:44:10.466Z,82.90
2018-06-19T15:46:39.275Z,89.40
2018-06-19T15:49:08.074Z,90.80
2018-06-19T15:51:36.918Z,92.40
2018-06-19T15:54:05.653Z,92.20
2018-06-19T15:56:34.372Z,92.70
2018-06-19T15:59:03.118Z,94.10
2018-06-19T16:01:32.189Z,95.30
2018-06-19T16:04:00.918Z,96.20
2018-06-19T16:06:29.669Z,98.60
2018-06-19T16:08:58.360Z,99.70
2018-06-19T16:11:27.111Z,99.90
2018-06-19T16:13:55.877Z,99.90
2018-06-19T16:16:24.642Z,99.90
2018-06-19T16:21:21.715Z,99.90
2018-06-19T16:23:50.535Z,99.90
2018-06-19T16:26:19.310Z,99.90
2018-06-19T16:28:48.034Z,99.90
2018-06-19T16:31:17.107Z,99.90
2018-06-19T16:33:45.871Z,99.90
2018-06-19T16:36:14.610Z,99.90
2018-06-19T16:38:43.451Z,99.90
2018-06-19T16:43:40.903Z,99.90
2018-06-19T16:46:09.766Z,99.90
2018-06-19T16:48:38.800Z,99.90
2018-06-19T16:51:07.679Z,99.90
2018-06-19T16:53:36.709Z,99.90
2018-06-19T16:56:05.615Z,99.90
2018-06-19T16:58:34.430Z,99.90
2018-06-19T17:01:03.270Z,99.90
2018-06-19T17:03:31.966Z,99.90
2018-06-19T17:06:00.690Z,99.90
2018-06-19T17:08:29.453Z,99.90
2018-06-19T17:10:58.217Z,99.90
2018-06-19T17:13:26.921Z,99.90
2018-06-19T17:15:55.712Z,99.90
2018-06-19T17:18:24.442Z,99.90
2018-06-19T17:20:53.241Z,99.90
2018-06-19T17:23:21.954Z,99.90
2018-06-19T17:25:51.514Z,99.90
2018-06-19T17:28:20.204Z,99.90
2018-06-19T17:30:49.008Z,99.90
2018-06-19T17:33:17.717Z,99.90
2018-06-19T17:35:46.486Z,99.90
2018-06-19T17:38:15.384Z,99.90
2018-06-19T17:40:44.344Z,99.90
2018-06-19T17:43:13.242Z,99.90
2018-06-19T17:45:42.139Z,99.90
2018-06-19T17:48:10.953Z,99.90
2018-06-19T17:50:39.758Z,99.90
2018-06-19T17:53:08.602Z,99.90
2018-06-19T17:55:37.394Z,99.90
2018-06-19T17:58:06.117Z,99.90
2018-06-19T18:00:34.862Z,99.90
2018-06-19T18:03:03.717Z,99.90
2018-06-19T18:05:32.572Z,99.90
2018-06-19T18:08:01.416Z,99.90
2018-06-19T18:10:30.235Z,99.90
2018-06-19T18:12:58.962Z,99.90
2018-06-19T18:15:27.710Z,99.90
2018-06-19T18:17:56.550Z,99.90
2018-06-19T18:20:25.356Z,99.90
2018-06-19T18:22:54.171Z,99.90
2018-06-19T18:25:22.962Z,99.90
2018-06-19T18:27:51.734Z,99.90
2018-06-19T18:30:20.575Z,99.90
2018-06-19T18:32:49.542Z,99.90
2018-06-19T18:35:18.441Z,99.90
2018-06-19T18:37:47.173Z,99.90
2018-06-19T18:40:15.894Z,99.90
2018-06-19T18:42:44.702Z,99.90
2018-06-19T18:45:13.451Z,99.90
2018-06-19T18:47:42.408Z,99.90
2018-06-19T18:50:11.210Z,99.90
2018-06-19T18:52:39.942Z,99.90
2018-06-19T18:55:08.916Z,99.90
2018-06-19T18:57:37.667Z,99.90
2018-06-19T19:00:06.510Z,99.90
2018-06-19T19:02:35.318Z,99.90
2018-06-19T19:05:04.133Z,99.90
2018-06-19T19:07:33.158Z,99.90
2018-06-19T19:10:07.262Z,99.90
2018-06-19T19:12:36.004Z,99.90
2018-06-19T19:15:10.139Z,99.90
2018-06-19T19:17:44.213Z,99.90
2018-06-19T19:22:41.290Z,99.90
2018-06-19T19:25:10.060Z,99.90
2018-06-19T19:27:44.150Z,99.90
2018-06-19T19:30:12.964Z,99.90
2018-06-19T19:32:41.746Z,99.90
2018-06-19T19:35:10.482Z,99.90
2018-06-19T19:37:44.554Z,99.90
2018-06-19T19:40:13.439Z,99.90
2018-06-19T19:42:42.181Z,99.90
2018-06-19T19:45:11.014Z,99.90
2018-06-19T19:47:45.053Z,99.90
2018-06-19T19:50:13.790Z,99.90
2018-06-19T19:52:42.504Z,99.90
2018-06-19T19:55:11.346Z,99.90
2018-06-19T19:59:49.780Z,99.90
2018-06-19T20:02:18.454Z,99.90
2018-06-19T20:04:47.347Z,99.90
2018-06-19T20:07:16.164Z,99.90
2018-06-19T20:12:13.241Z,99.90
2018-06-19T20:14:42.020Z,99.90
2018-06-19T20:17:10.766Z,99.90
2018-06-19T20:19:39.475Z,99.90
2018-06-19T20:22:08.345Z,99.90
2018-06-19T20:24:37.074Z,99.90
2018-06-19T20:27:06.090Z,99.90
2018-06-19T20:29:34.903Z,99.90
2018-06-19T20:32:03.638Z,99.90
2018-06-19T20:34:32.387Z,99.90
2018-06-19T20:37:01.113Z,99.90
2018-06-19T20:39:29.849Z,99.90
2018-06-19T20:41:58.596Z,99.90
2018-06-19T20:46:55.828Z,99.90
2018-06-19T20:49:24.533Z,99.90
2018-06-19T20:51:53.322Z,99.90
2018-06-19T20:54:22.049Z,99.90
2018-06-19T20:56:50.959Z,99.90
2018-06-19T20:59:19.758Z,99.90
2018-06-19T21:01:48.431Z,99.90
2018-06-19T21:09:13.912Z,99.90
2018-06-19T21:11:42.622Z,99.90
2018-06-19T21:14:11.449Z,99.90
2018-06-19T21:16:40.161Z,99.90
2018-06-19T21:19:08.876Z,99.90
2018-06-19T21:21:37.614Z,99.90
2018-06-19T21:24:06.385Z,99.90
2018-06-19T21:26:35.106Z,99.90
2018-06-19T21:29:03.834Z,99.90
2018-06-19T21:31:32.493Z,99.90
2018-06-19T21:34:01.269Z,99.90
2018-06-19T21:36:29.989Z,99.90
2018-06-19T21:41:26.977Z,99.90
2018-06-19T21:43:55.886Z,99.90
2018-06-19T21:46:24.610Z,99.90
2018-06-19T21:48:53.366Z,99.90
2018-06-19T21:51:22.057Z,99.90
2018-06-19T21:53:50.723Z,99.90
2018-06-19T21:56:19.412Z,99.90
2018-06-19T21:58:48.126Z,99.90
2018-06-19T22:01:16.842Z,99.90
2018-06-19T22:06:13.821Z,99.90
2018-06-19T22:08:45.079Z,99.90
2018-06-19T22:11:14.666Z,99.90
2018-06-19T22:13:43.419Z,99.90
2018-06-19T22:16:12.466Z,99.90
2018-06-19T22:18:41.267Z,99.90
2018-06-19T22:21:10.032Z,99.90
2018-06-19T22:23:38.797Z,99.90
2018-06-19T22:26:07.554Z,99.90
2018-06-19T22:28:36.298Z,99.90
2018-06-19T22:31:05.040Z,99.90
2018-06-19T22:33:33.762Z,99.90
2018-06-19T22:36:02.434Z,99.90
2018-06-19T22:38:31.227Z,99.90
2018-06-19T22:40:59.957Z,99.90
2018-06-19T22:43:28.709Z,99.90
2018-06-19T22:45:57.466Z,99.90
2018-06-19T22:48:26.141Z,99.90
2018-06-19T22:50:54.940Z,99.90
2018-06-19T22:53:23.622Z,99.90
2018-06-19T22:55:52.343Z,99.90
2018-06-19T22:58:21.066Z,99.90
2018-06-19T23:00:49.826Z,99.90
2018-06-19T23:03:18.537Z,99.90
2018-06-19T23:05:47.242Z,99.90
2018-06-19T23:08:15.891Z,99.90
2018-06-19T23:10:44.622Z,99.90
2018-06-19T23:13:13.303Z,99.90
2018-06-19T23:15:42.037Z,99.90
2018-06-19T23:18:10.736Z,99.90
2018-06-19T23:20:39.424Z,99.90
2018-06-19T23:23:08.147Z,99.90
2018-06-19T23:25:36.882Z,99.90
2018-06-19T23:28:05.611Z,99.90
2018-06-19T23:30:34.319Z,99.90
2018-06-19T23:33:03.058Z,99.90
2018-06-19T23:35:31.754Z,99.90
2018-06-19T23:38:00.457Z,99.90
2018-06-19T23:40:29.221Z,99.90
2018-06-19T23:42:58.047Z,99.90
2018-06-19T23:45:26.738Z,99.90
2018-06-19T23:47:55.471Z,99.90
2018-06-19T23:50:24.129Z,99.90
2018-06-19T23:52:52.807Z,99.90
2018-06-19T23:55:21.566Z,99.90
2018-06-19T23:57:50.242Z,99.90
